Time,TemperatureF,DewpointF,PressureIn,WindDirection,WindDirectionDegrees,WindSpeedMPH,WindSpeedGustMPH,Humidity,HourlyPrecipIn,Conditions,Clouds,dailyrainin,SoftwareType,DateUTC
2013-10-24 00:04:00,31.0,26.0,-100.00,West,280,4.0,7.0,83,1.69,,,-99.99,,2013-10-24 05:04:00,
2013-10-24 00:13:00,31.0,26.0,-100.00,West,280,4.0,7.0,83,1.69,,,-99.99,,2013-10-24 05:13:00,
2013-10-24 00:43:00,31.0,27.0,-100.00,West,260,3.0,6.0,87,0.57,,,-99.99,,2013-10-24 05:43:00,
2013-10-24 00:53:00,31.0,27.0,-100.00,West,260,3.0,6.0,87,0.57,,,-99.99,,2013-10-24 05:53:00,
2013-10-24 01:03:00,31.0,27.0,-100.00,West,260,3.0,6.0,87,0.57,,,-99.99,,2013-10-24 06:03:00,
2013-10-24 01:12:00,31.0,27.0,-100.00,West,260,3.0,6.0,87,0.57,,,-99.99,,2013-10-24 06:12:00,
2013-10-24 01:52:00,31.0,27.0,-100.00,West,260,2.0,6.0,87,0.00,,,-99.99,,2013-10-24 06:52:00,
2013-10-24 02:02:00,31.0,27.0,-100.00,West,260,2.0,6.0,87,0.00,,,-99.99,,2013-10-24 07:02:00,
2013-10-24 02:12:00,31.0,27.0,-100.00,West,260,2.0,6.0,87,0.00,,,-99.99,,2013-10-24 07:12:00,
2013-10-24 02:52:00,31.0,28.0,-100.00,WNW,285,6.0,11.0,87,0.11,,,-99.99,,2013-10-24 07:52:00,
2013-10-24 03:02:00,31.0,28.0,-100.00,WNW,285,6.0,11.0,87,0.11,,,-99.99,,2013-10-24 08:02:00,
2013-10-24 03:11:00,31.0,28.0,-100.00,WNW,285,6.0,11.0,87,0.11,,,-99.99,,2013-10-24 08:11:00,
2013-10-24 03:53:00,30.0,27.0,-100.00,WNW,295,4.0,9.0,86,0.00,,,-99.99,,2013-10-24 08:53:00,
2013-10-24 04:01:00,30.0,27.0,-100.00,WNW,295,4.0,9.0,86,0.00,,,-99.99,,2013-10-24 09:01:00,
2013-10-24 04:12:00,30.0,27.0,-100.00,WNW,295,4.0,9.0,86,0.00,,,-99.99,,2013-10-24 09:12:00,
2013-10-24 04:53:00,31.0,26.0,-100.00,NW,310,4.0,7.0,81,0.00,,,-99.99,,2013-10-24 09:53:00,
2013-10-24 05:03:00,31.0,26.0,-100.00,NW,310,4.0,7.0,81,0.00,,,-99.99,,2013-10-24 10:03:00,
2013-10-24 05:12:00,31.0,26.0,-100.00,NW,310,4.0,7.0,81,0.00,,,-99.99,,2013-10-24 10:12:00,
2013-10-24 05:53:00,31.0,25.0,-100.00,West,275,4.0,9.0,77,0.00,,,-99.99,,2013-10-24 10:53:00,
2013-10-24 06:02:00,31.0,25.0,-100.00,West,275,4.0,9.0,77,0.00,,,-99.99,,2013-10-24 11:02:00,
2013-10-24 06:12:00,31.0,25.0,-100.00,West,275,4.0,9.0,77,0.00,,,-99.99,,2013-10-24 11:12:00,
2013-10-24 06:53:00,32.0,25.0,-100.00,West,275,6.0,9.0,78,0.00,,,-99.99,,2013-10-24 11:53:00,
2013-10-24 07:01:00,32.0,25.0,-100.00,West,275,6.0,9.0,78,0.00,,,-99.99,,2013-10-24 12:01:00,
2013-10-24 07:12:00,32.0,25.0,-100.00,West,275,6.0,9.0,78,0.00,,,-99.99,,2013-10-24 12:12:00,
2013-10-24 07:52:00,31.0,25.0,-100.00,West,270,4.0,9.0,78,0.00,,,-99.99,,2013-10-24 12:52:00,
2013-10-24 08:01:00,31.0,25.0,-100.00,West,270,4.0,9.0,78,0.00,,,-99.99,,2013-10-24 13:01:00,
2013-10-24 08:12:00,31.0,25.0,-100.00,West,270,4.0,9.0,78,0.00,,,-99.99,,2013-10-24 13:12:00,
2013-10-24 08:52:00,31.0,25.0,-100.00,West,275,6.0,10.0,78,0.00,,,-99.99,,2013-10-24 13:52:00,
2013-10-24 09:01:00,31.0,25.0,-100.00,West,275,6.0,10.0,78,0.00,,,-99.99,,2013-10-24 14:01:00,
2013-10-24 09:11:00,31.0,25.0,-100.00,West,275,6.0,10.0,78,0.00,,,-99.99,,2013-10-24 14:11:00,
2013-10-24 09:52:00,32.0,25.0,-100.00,West,280,6.0,9.0,77,0.00,,,-99.99,,2013-10-24 14:52:00,
2013-10-24 10:01:00,32.0,25.0,-100.00,West,280,6.0,9.0,77,0.00,,,-99.99,,2013-10-24 15:01:00,
2013-10-24 10:11:00,32.0,25.0,-100.00,West,280,6.0,9.0,77,0.00,,,-99.99,,2013-10-24 15:11:00,
2013-10-24 10:53:00,33.0,25.0,-100.00,West,275,7.0,12.0,72,0.00,,,-99.99,,2013-10-24 15:53:00,
2013-10-24 11:03:00,33.0,25.0,-100.00,West,275,7.0,12.0,72,0.00,,,-99.99,,2013-10-24 16:03:00,
2013-10-24 11:13:00,33.0,25.0,-100.00,West,275,7.0,12.0,72,0.00,,,-99.99,,2013-10-24 16:13:00,
2013-10-24 11:53:00,34.0,24.0,-100.00,West,275,9.0,15.0,66,0.00,,,-99.99,,2013-10-24 16:53:00,
2013-10-24 12:03:00,34.0,24.0,-100.00,West,275,9.0,15.0,66,0.00,,,-99.99,,2013-10-24 17:03:00,
2013-10-24 12:12:00,34.0,24.0,-100.00,West,275,9.0,15.0,66,0.00,,,-99.99,,2013-10-24 17:12:00,
2013-10-24 12:52:00,35.0,22.0,-100.00,WNW,285,7.0,15.0,59,0.00,,,-99.99,,2013-10-24 17:52:00,
2013-10-24 13:02:00,35.0,22.0,-100.00,WNW,285,7.0,15.0,59,0.00,,,-99.99,,2013-10-24 18:02:00,
2013-10-24 13:12:00,35.0,22.0,-100.00,WNW,285,7.0,15.0,59,0.00,,,-99.99,,2013-10-24 18:12:00,
2013-10-24 14:11:00,36.0,21.0,-100.00,WNW,290,5.0,12.0,54,0.00,,,-99.99,,2013-10-24 19:11:00,
2013-10-24 18:43:00,35.0,22.0,-100.00,NW,305,0.0,3.0,60,0.00,,,-99.99,,2013-10-24 23:43:00,
2013-10-24 18:53:00,35.0,22.0,-100.00,NW,305,0.0,3.0,60,0.00,,,-99.99,,2013-10-24 23:53:00,
2013-10-24 19:02:00,35.0,22.0,-100.00,NW,305,0.0,3.0,60,0.00,,,-99.99,,2013-10-25 00:02:00,
2013-10-24 19:12:00,35.0,22.0,-100.00,NW,305,0.0,3.0,60,0.00,,,-99.99,,2013-10-25 00:12:00,
2013-10-24 19:42:00,34.0,27.0,-100.00,NW,305,1.0,9.0,75,0.07,,,-99.99,,2013-10-25 00:42:00,
2013-10-24 19:52:00,34.0,27.0,-100.00,NW,305,1.0,9.0,75,0.07,,,-99.99,,2013-10-25 00:52:00,
2013-10-24 20:02:00,34.0,27.0,-100.00,NW,305,1.0,9.0,75,0.07,,,-99.99,,2013-10-25 01:02:00,
2013-10-24 20:11:00,34.0,27.0,-100.00,NW,305,1.0,9.0,75,0.07,,,-99.99,,2013-10-25 01:11:00,
2013-10-24 20:43:00,32.0,28.0,-100.00,West,265,1.0,2.0,84,0.00,,,-99.99,,2013-10-25 01:43:00,
2013-10-24 20:53:00,32.0,28.0,-100.00,West,265,1.0,2.0,84,0.00,,,-99.99,,2013-10-25 01:53:00,
2013-10-24 21:02:00,32.0,28.0,-100.00,West,265,1.0,2.0,84,0.00,,,-99.99,,2013-10-25 02:02:00,
2013-10-24 21:12:00,32.0,28.0,-100.00,West,265,1.0,2.0,84,0.00,,,-99.99,,2013-10-25 02:12:00,
2013-10-24 21:43:00,34.0,29.0,-100.00,West,275,6.0,9.0,83,0.00,,,-99.99,,2013-10-25 02:43:00,
2013-10-24 21:52:00,34.0,29.0,-100.00,West,275,6.0,9.0,83,0.00,,,-99.99,,2013-10-25 02:52:00,
2013-10-24 22:03:00,34.0,29.0,-100.00,West,275,6.0,9.0,83,0.00,,,-99.99,,2013-10-25 03:03:00,
2013-10-24 22:12:00,34.0,29.0,-100.00,West,275,6.0,9.0,83,0.00,,,-99.99,,2013-10-25 03:12:00,
2013-10-24 22:54:00,31.0,26.0,-100.00,West,270,2.0,4.0,82,0.00,,,-99.99,,2013-10-25 03:54:00,
2013-10-24 23:04:00,31.0,26.0,-100.00,West,270,2.0,4.0,82,0.00,,,-99.99,,2013-10-25 04:04:00,
2013-10-24 23:14:00,31.0,26.0,-100.00,West,270,2.0,4.0,82,0.00,,,-99.99,,2013-10-25 04:14:00,
2013-10-24 23:54:00,31.0,28.0,-100.00,West,275,3.0,6.0,87,0.00,,,-99.99,,2013-10-25 04:54:00,